Terminal Aerodrome Forecast
Issued by NWS

Home | Current Version | Previous Version | Text Only | Print | Product List | Glossary On
Versions: 1 2 3 4 5 6 7 8 9 10 11 12 13
000
FTUS45 KRIW 192011 AAA
TAFCPR
TAF AMD
KCPR 192011Z 1920/2018 27011G17KT P6SM BKN250
     FM200100 31011KT P6SM SCT250
     FM200300 06007KT P6SM FEW090
     FM201100 25009KT P6SM FEW090=

USA.gov is the U.S. government's official web portal to all federal, state and local government web resources and services.